createdAt,value
2018-10-11T00:00:27.592Z,99.90
2018-10-11T00:02:56.973Z,99.90
2018-10-11T00:05:26.613Z,99.90
2018-10-11T00:07:55.735Z,99.90
2018-10-11T00:10:25.542Z,99.90
2018-10-11T00:12:54.836Z,99.90
2018-10-11T00:15:23.946Z,99.90
2018-10-11T00:17:53.121Z,99.90
2018-10-11T00:20:22.335Z,99.90
2018-10-11T00:22:51.468Z,99.90
2018-10-11T00:25:20.735Z,99.90
2018-10-11T00:27:49.969Z,99.90
2018-10-11T00:30:19.293Z,99.90
2018-10-11T00:32:49.036Z,99.90
2018-10-11T00:35:18.528Z,99.90
2018-10-11T00:37:47.669Z,99.90
2018-10-11T00:40:16.972Z,99.90
2018-10-11T00:42:46.194Z,99.90
2018-10-11T00:45:15.340Z,99.90
2018-10-11T00:47:44.831Z,99.90
2018-10-11T00:50:14.103Z,99.90
2018-10-11T00:52:43.476Z,99.90
2018-10-11T00:55:12.716Z,99.90
2018-10-11T00:57:42.075Z,99.90
2018-10-11T01:00:11.374Z,99.90
2018-10-11T01:02:41.324Z,99.90
2018-10-11T01:05:10.615Z,99.90
2018-10-11T01:07:39.740Z,99.90
2018-10-11T01:10:09.316Z,99.90
2018-10-11T01:12:39.443Z,99.90
2018-10-11T01:15:08.797Z,99.90
2018-10-11T01:17:38.228Z,99.90
2018-10-11T01:20:07.436Z,99.90
2018-10-11T01:22:36.680Z,99.90
2018-10-11T01:25:05.966Z,99.90
2018-10-11T01:27:35.192Z,99.90
2018-10-11T01:30:04.761Z,99.90
2018-10-11T01:32:33.934Z,99.90
2018-10-11T01:35:03.155Z,99.90
2018-10-11T01:37:32.269Z,99.90
2018-10-11T01:40:01.514Z,99.90
2018-10-11T01:42:30.680Z,99.90
2018-10-11T01:45:00.490Z,99.90
2018-10-11T01:47:29.667Z,99.90
2018-10-11T01:49:58.893Z,99.90
2018-10-11T01:52:28.033Z,99.90
2018-10-11T01:54:57.277Z,99.90
2018-10-11T01:57:26.482Z,99.90
2018-10-11T01:59:55.663Z,99.90
2018-10-11T02:02:24.831Z,99.90
2018-10-11T02:04:53.975Z,99.90
2018-10-11T02:07:23.205Z,99.90
2018-10-11T02:09:52.402Z,99.90
2018-10-11T02:12:21.539Z,99.90
2018-10-11T02:14:50.810Z,99.90
2018-10-11T02:17:20.321Z,99.90
2018-10-11T02:19:49.748Z,99.90
2018-10-11T02:22:18.985Z,99.90
2018-10-11T02:24:48.218Z,99.90
2018-10-11T02:27:17.560Z,99.90
2018-10-11T02:29:46.736Z,99.90
2018-10-11T02:32:16.022Z,99.90
2018-10-11T02:34:45.138Z,99.90
2018-10-11T02:37:14.285Z,99.90
2018-10-11T02:39:43.429Z,99.90
2018-10-11T02:42:12.605Z,99.90
2018-10-11T02:44:41.779Z,99.90
2018-10-11T02:47:11.432Z,99.90
2018-10-11T02:49:40.967Z,99.90
2018-10-11T02:52:10.209Z,99.90
2018-10-11T02:54:39.505Z,99.90
2018-10-11T02:57:18.886Z,99.90
2018-10-11T02:59:48.155Z,99.90
2018-10-11T03:02:17.579Z,99.90
2018-10-11T03:04:48.820Z,99.90
2018-10-11T03:07:18.239Z,99.90
2018-10-11T03:09:48.152Z,99.90
2018-10-11T03:12:17.593Z,99.90
2018-10-11T03:14:46.746Z,99.90
2018-10-11T03:17:16.022Z,99.90
2018-10-11T03:19:45.198Z,99.90
2018-10-11T03:22:14.369Z,99.90
2018-10-11T03:24:43.615Z,99.90
2018-10-11T03:27:12.846Z,99.90
2018-10-11T03:29:41.952Z,99.90
2018-10-11T03:32:11.148Z,99.90
2018-10-11T03:34:40.345Z,99.90
2018-10-11T03:37:09.465Z,99.90
2018-10-11T03:39:39.466Z,99.90
2018-10-11T03:42:08.638Z,99.90
2018-10-11T03:44:38.589Z,99.90
2018-10-11T03:47:07.871Z,99.90
2018-10-11T03:49:36.988Z,99.90
2018-10-11T03:52:07.265Z,99.90
2018-10-11T03:54:36.497Z,99.90
2018-10-11T03:57:05.664Z,99.90
2018-10-11T03:59:35.652Z,99.90
2018-10-11T04:02:05.540Z,99.90
2018-10-11T04:04:34.973Z,99.90
2018-10-11T04:07:04.133Z,99.90
2018-10-11T04:09:33.337Z,99.90
2018-10-11T04:12:02.648Z,99.90
2018-10-11T04:14:31.880Z,99.90
2018-10-11T04:17:01.125Z,99.90
2018-10-11T04:19:30.226Z,99.90
2018-10-11T04:21:59.531Z,99.90
2018-10-11T04:24:28.732Z,99.90
2018-10-11T04:26:57.946Z,99.90
2018-10-11T04:29:27.252Z,99.90
2018-10-11T04:31:56.600Z,99.90
2018-10-11T04:34:25.869Z,99.90
2018-10-11T04:36:55.071Z,99.90
2018-10-11T04:39:24.165Z,99.90
2018-10-11T04:41:53.410Z,99.90
2018-10-11T04:44:22.535Z,99.90
2018-10-11T04:46:51.666Z,99.90
2018-10-11T04:49:20.842Z,99.90
2018-10-11T04:51:49.928Z,99.90
2018-10-11T04:54:20.509Z,99.90
2018-10-11T04:56:49.610Z,99.90
2018-10-11T04:59:18.781Z,99.90
2018-10-11T05:01:47.936Z,99.90
2018-10-11T05:04:17.112Z,99.90
2018-10-11T05:06:46.252Z,99.90
2018-10-11T05:09:15.376Z,99.90
2018-10-11T05:11:44.640Z,99.90
2018-10-11T05:14:14.911Z,99.90
2018-10-11T05:16:44.317Z,99.90
2018-10-11T05:19:13.623Z,99.90
2018-10-11T05:21:42.844Z,99.90
2018-10-11T05:24:11.973Z,99.90
2018-10-11T05:26:41.423Z,99.90
2018-10-11T05:29:10.593Z,99.90
2018-10-11T05:31:39.947Z,99.90
2018-10-11T05:34:09.212Z,99.90
2018-10-11T05:36:38.420Z,99.90
2018-10-11T05:39:08.330Z,99.90
2018-10-11T05:41:38.614Z,99.90
2018-10-11T05:44:07.877Z,99.90
2018-10-11T05:46:37.145Z,99.90
2018-10-11T05:49:06.598Z,99.90
2018-10-11T05:51:36.369Z,99.90
2018-10-11T05:54:06.084Z,99.90
2018-10-11T05:56:38.281Z,99.90
2018-10-11T05:59:08.516Z,99.90
2018-10-11T06:01:38.011Z,99.90
2018-10-11T06:04:08.569Z,99.90
2018-10-11T06:06:37.778Z,99.90
2018-10-11T06:09:08.447Z,99.90
2018-10-11T06:11:37.759Z,99.90
2018-10-11T06:14:07.110Z,99.90
2018-10-11T06:16:36.403Z,99.90
2018-10-11T06:19:05.641Z,99.90
2018-10-11T06:21:35.030Z,99.90
2018-10-11T06:24:04.311Z,99.90
2018-10-11T06:26:34.045Z,99.90
2018-10-11T06:29:03.365Z,99.90
2018-10-11T06:31:32.780Z,99.90
2018-10-11T06:34:02.134Z,99.90
2018-10-11T06:36:31.569Z,99.90
2018-10-11T06:39:01.804Z,99.90
2018-10-11T06:41:31.001Z,99.90
2018-10-11T06:44:00.316Z,99.90
2018-10-11T06:46:29.537Z,99.90
2018-10-11T06:48:58.935Z,99.90
2018-10-11T06:51:28.276Z,99.90
2018-10-11T06:53:57.553Z,99.90
2018-10-11T06:56:26.770Z,99.90
2018-10-11T06:58:55.937Z,99.90
2018-10-11T07:01:25.076Z,99.90
2018-10-11T07:03:54.243Z,99.90
2018-10-11T07:06:23.403Z,99.90
2018-10-11T07:08:52.646Z,99.90
2018-10-11T07:11:21.821Z,99.90
2018-10-11T07:13:51.152Z,99.90
2018-10-11T07:16:20.279Z,99.90
2018-10-11T07:18:49.549Z,99.90
2018-10-11T07:21:18.988Z,99.90
2018-10-11T07:23:48.459Z,99.90
2018-10-11T07:26:17.661Z,99.90
2018-10-11T07:28:47.891Z,99.90
2018-10-11T07:31:17.207Z,99.90
2018-10-11T07:33:46.317Z,99.90
2018-10-11T07:36:15.475Z,99.90
2018-10-11T07:38:44.634Z,99.90
2018-10-11T07:41:13.783Z,99.90
2018-10-11T07:43:42.969Z,99.90
2018-10-11T07:46:12.141Z,99.90
2018-10-11T07:48:41.274Z,99.90
2018-10-11T07:51:10.517Z,99.90
2018-10-11T07:53:39.700Z,99.90
2018-10-11T07:56:09.310Z,99.90
2018-10-11T07:58:38.422Z,99.90
2018-10-11T08:01:07.894Z,99.90
2018-10-11T08:03:37.152Z,99.90
2018-10-11T08:06:06.374Z,99.90
2018-10-11T08:08:35.714Z,99.90
2018-10-11T08:11:05.064Z,99.90
2018-10-11T08:13:34.171Z,99.90
2018-10-11T08:16:03.383Z,99.90
2018-10-11T08:18:32.530Z,99.90
2018-10-11T08:21:01.927Z,99.90
2018-10-11T08:23:31.080Z,99.90
2018-10-11T08:26:00.515Z,99.90
2018-10-11T08:28:29.454Z,99.90
2018-10-11T08:30:58.663Z,99.90
2018-10-11T08:33:27.824Z,99.90
2018-10-11T08:35:57.073Z,99.90
2018-10-11T08:38:26.296Z,99.90
2018-10-11T08:40:55.447Z,99.90
2018-10-11T08:43:24.820Z,99.90
2018-10-11T08:45:54.004Z,99.90
2018-10-11T08:48:23.412Z,99.90
2018-10-11T08:50:53.209Z,99.90
2018-10-11T08:53:22.369Z,99.90
2018-10-11T08:55:51.622Z,99.90
2018-10-11T08:58:20.724Z,99.90
2018-10-11T09:00:49.902Z,99.90
2018-10-11T09:03:19.250Z,99.90
2018-10-11T09:05:48.356Z,99.90
2018-10-11T09:08:17.486Z,99.90
2018-10-11T09:10:46.654Z,99.90
2018-10-11T09:13:15.943Z,99.90
2018-10-11T09:15:45.062Z,99.90
2018-10-11T09:18:14.210Z,99.90
2018-10-11T09:20:43.579Z,99.90
2018-10-11T09:23:12.699Z,99.90
2018-10-11T09:25:41.864Z,99.90
2018-10-11T09:28:11.170Z,99.90
2018-10-11T09:30:40.347Z,99.90
2018-10-11T09:33:09.592Z,99.90
2018-10-11T09:35:38.750Z,99.90
2018-10-11T09:38:07.927Z,99.90
2018-10-11T09:40:37.105Z,99.90
2018-10-11T09:43:06.337Z,99.90
2018-10-11T09:45:35.481Z,99.90
2018-10-11T09:48:04.673Z,99.90
2018-10-11T09:50:33.915Z,99.90
2018-10-11T09:53:03.081Z,99.90
2018-10-11T09:55:32.257Z,99.90
2018-10-11T09:58:01.455Z,99.90
2018-10-11T10:00:38.850Z,99.90
2018-10-11T10:03:09.577Z,99.90
2018-10-11T10:05:38.801Z,99.90
2018-10-11T10:08:08.270Z,99.90
2018-10-11T10:10:37.537Z,99.90
2018-10-11T10:13:06.823Z,99.90
2018-10-11T10:15:36.142Z,99.90
2018-10-11T10:18:05.398Z,99.90
2018-10-11T10:20:34.700Z,99.90
2018-10-11T10:23:03.885Z,99.90
2018-10-11T10:25:33.058Z,99.90
2018-10-11T10:28:02.187Z,99.90
2018-10-11T10:30:36.614Z,99.90
2018-10-11T10:33:05.742Z,99.90
2018-10-11T10:35:35.076Z,99.90
2018-10-11T10:38:04.255Z,99.90
2018-10-11T10:40:34.821Z,99.90
2018-10-11T10:43:03.985Z,99.90
2018-10-11T10:45:33.133Z,99.90
2018-10-11T10:48:02.238Z,99.90
2018-10-11T10:50:31.376Z,99.90
2018-10-11T10:53:00.669Z,99.90
2018-10-11T10:55:29.839Z,99.90
2018-10-11T10:57:58.929Z,99.90
2018-10-11T11:00:28.465Z,99.90
2018-10-11T11:02:57.586Z,99.90
2018-10-11T11:05:26.802Z,99.90
2018-10-11T11:07:55.984Z,99.90
2018-10-11T11:10:25.139Z,99.90
2018-10-11T11:12:54.289Z,99.90
2018-10-11T11:15:23.722Z,99.90
2018-10-11T11:17:52.928Z,99.90
2018-10-11T11:20:22.100Z,99.90
2018-10-11T11:22:52.233Z,99.90
2018-10-11T11:25:21.508Z,99.40
2018-10-11T11:27:50.640Z,99.80
2018-10-11T11:30:19.877Z,99.30
2018-10-11T11:32:49.083Z,99.90
2018-10-11T11:35:18.218Z,97.60
2018-10-11T11:37:47.470Z,97.80
2018-10-11T11:40:16.655Z,96.70
2018-10-11T11:42:45.805Z,98.00
2018-10-11T11:45:15.010Z,99.90
2018-10-11T11:47:44.171Z,99.10
2018-10-11T11:50:13.398Z,97.90
2018-10-11T11:52:42.586Z,97.60
2018-10-11T11:55:11.771Z,97.40
2018-10-11T11:57:41.035Z,97.30
2018-10-11T12:00:10.279Z,96.50
2018-10-11T12:02:39.497Z,95.90
2018-10-11T12:05:08.864Z,96.80
2018-10-11T12:07:38.078Z,98.00
2018-10-11T12:10:07.301Z,97.70
2018-10-11T12:13:00.715Z,98.60
2018-10-11T12:15:30.702Z,98.50
2018-10-11T12:18:00.914Z,99.10
2018-10-11T12:20:31.270Z,99.00
2018-10-11T12:23:01.697Z,99.90
2018-10-11T12:25:31.453Z,99.00
2018-10-11T12:28:00.793Z,98.70
2018-10-11T12:30:30.125Z,99.20
2018-10-11T12:32:59.309Z,99.40
2018-10-11T12:35:28.952Z,99.90
2018-10-11T12:37:58.211Z,99.90
2018-10-11T12:40:27.774Z,99.60
2018-10-11T12:42:56.987Z,99.70
2018-10-11T12:45:26.541Z,99.90
2018-10-11T12:47:55.698Z,99.90
2018-10-11T12:50:24.874Z,99.90
2018-10-11T12:52:54.097Z,99.90
2018-10-11T12:55:23.395Z,99.90
2018-10-11T12:57:53.055Z,99.90
2018-10-11T13:00:22.235Z,99.90
2018-10-11T13:02:51.599Z,99.90
2018-10-11T13:05:20.745Z,99.90
2018-10-11T13:07:50.083Z,99.90
2018-10-11T13:10:19.345Z,99.90
2018-10-11T13:12:48.453Z,99.90
2018-10-11T13:15:17.592Z,99.90
2018-10-11T13:17:46.726Z,99.90
2018-10-11T13:20:15.974Z,99.90
2018-10-11T13:22:45.220Z,99.90
2018-10-11T13:25:14.439Z,99.90
2018-10-11T13:27:43.637Z,99.90
2018-10-11T13:30:12.817Z,99.60
2018-10-11T13:32:42.027Z,98.80
2018-10-11T13:35:11.376Z,98.60
2018-10-11T13:37:40.653Z,98.90
2018-10-11T13:40:09.935Z,99.10
2018-10-11T13:42:39.099Z,99.10
2018-10-11T13:45:08.323Z,99.40
2018-10-11T13:47:42.329Z,99.90
2018-10-11T13:50:06.780Z,99.90
2018-10-11T13:52:36.025Z,99.90
2018-10-11T13:55:11.113Z,99.90
2018-10-11T13:57:34.491Z,99.90
2018-10-11T14:00:03.727Z,99.90
2018-10-11T14:02:33.077Z,99.90
2018-10-11T14:05:02.416Z,99.90
2018-10-11T14:07:31.675Z,99.90
2018-10-11T14:10:00.854Z,99.90
2018-10-11T14:12:30.108Z,99.90
2018-10-11T14:14:59.515Z,99.90
2018-10-11T14:17:28.685Z,99.90
2018-10-11T14:19:59.955Z,99.90
2018-10-11T14:22:29.122Z,99.90
2018-10-11T14:24:58.298Z,99.90
2018-10-11T14:27:27.504Z,99.90
2018-10-11T14:29:56.721Z,99.90
2018-10-11T14:32:25.906Z,99.90
2018-10-11T14:34:55.260Z,99.90
2018-10-11T14:37:24.423Z,99.90
2018-10-11T14:39:53.618Z,99.90
2018-10-11T14:42:22.813Z,99.90
2018-10-11T14:44:52.122Z,99.90
2018-10-11T14:47:21.331Z,99.90
2018-10-11T14:49:50.755Z,99.90
2018-10-11T14:52:19.951Z,99.90
2018-10-11T14:54:49.151Z,99.90
2018-10-11T14:57:18.365Z,99.90
2018-10-11T14:59:47.570Z,99.90
2018-10-11T15:02:16.822Z,99.90
2018-10-11T15:04:46.019Z,99.90
2018-10-11T15:07:15.195Z,99.90
2018-10-11T15:09:44.338Z,99.90
2018-10-11T15:12:13.745Z,99.90
2018-10-11T15:14:42.938Z,99.90
2018-10-11T15:17:12.119Z,99.90
2018-10-11T15:19:41.250Z,99.90
2018-10-11T15:22:10.356Z,99.90
2018-10-11T15:24:39.506Z,99.90
2018-10-11T15:27:08.649Z,99.90
2018-10-11T15:29:37.855Z,99.90
2018-10-11T15:32:06.987Z,99.90
2018-10-11T15:34:36.156Z,99.90
2018-10-11T15:37:05.371Z,99.90
2018-10-11T15:39:34.558Z,99.90
2018-10-11T15:42:03.693Z,99.90
2018-10-11T15:44:32.825Z,99.90
2018-10-11T15:47:01.963Z,99.90
2018-10-11T15:49:31.216Z,99.90
2018-10-11T15:52:00.463Z,99.90
2018-10-11T15:54:29.668Z,99.90
2018-10-11T15:56:58.870Z,99.90
2018-10-11T15:59:28.090Z,99.90
2018-10-11T16:01:57.314Z,99.90
2018-10-11T16:04:26.513Z,99.90
2018-10-11T16:06:55.888Z,99.90
2018-10-11T16:09:25.207Z,99.90
2018-10-11T16:11:54.607Z,99.90
2018-10-11T16:14:23.983Z,99.90
2018-10-11T16:16:53.285Z,99.90
2018-10-11T16:19:22.451Z,99.90
2018-10-11T16:21:51.633Z,99.90
2018-10-11T16:24:20.839Z,99.90
2018-10-11T16:26:50.489Z,99.90
2018-10-11T16:29:19.891Z,99.90
2018-10-11T16:31:49.159Z,99.90
2018-10-11T16:34:18.534Z,99.90
2018-10-11T16:36:47.700Z,99.90
2018-10-11T16:39:16.937Z,99.90
2018-10-11T16:41:46.071Z,99.90
2018-10-11T16:44:15.559Z,99.90
2018-10-11T16:46:44.817Z,99.90
2018-10-11T16:49:14.586Z,99.90
2018-10-11T16:51:43.745Z,99.90
2018-10-11T16:54:13.025Z,99.90
2018-10-11T16:56:42.205Z,99.90
2018-10-11T16:59:11.588Z,99.90
2018-10-11T17:01:40.870Z,99.90
2018-10-11T17:04:11.411Z,99.90
2018-10-11T17:06:40.642Z,99.90
2018-10-11T17:09:11.231Z,99.90
2018-10-11T17:11:40.478Z,99.90
2018-10-11T17:14:09.871Z,99.90
2018-10-11T17:16:39.030Z,99.90
2018-10-11T17:19:08.240Z,99.90
2018-10-11T17:21:37.557Z,99.90
2018-10-11T17:24:07.179Z,99.90
2018-10-11T17:26:36.457Z,99.90
2018-10-11T17:29:05.630Z,99.90
2018-10-11T17:31:34.946Z,99.90
2018-10-11T17:34:04.196Z,99.90
2018-10-11T17:36:33.611Z,99.90
2018-10-11T17:39:02.911Z,99.90
2018-10-11T17:41:32.257Z,99.90
2018-10-11T17:44:01.557Z,99.90
2018-10-11T17:46:30.714Z,99.90
2018-10-11T17:48:59.898Z,99.90
2018-10-11T17:51:29.015Z,99.90
2018-10-11T17:53:58.159Z,99.90
2018-10-11T17:56:27.321Z,99.90
2018-10-11T17:58:56.480Z,99.90
2018-10-11T18:01:25.625Z,99.90
2018-10-11T18:03:54.772Z,99.90
2018-10-11T18:06:23.920Z,99.90
2018-10-11T18:08:53.009Z,99.90
2018-10-11T18:11:22.179Z,99.90
2018-10-11T18:13:51.295Z,99.90
2018-10-11T18:16:20.744Z,99.90
2018-10-11T18:18:50.305Z,99.90
2018-10-11T18:21:20.087Z,99.90
2018-10-11T18:23:49.526Z,99.90
2018-10-11T18:26:19.015Z,99.90
2018-10-11T18:28:48.583Z,99.90
2018-10-11T18:31:18.452Z,99.90
2018-10-11T18:33:48.320Z,99.90
2018-10-11T18:36:17.876Z,99.90
2018-10-11T18:38:47.256Z,99.90
2018-10-11T18:41:17.018Z,99.90
2018-10-11T18:43:46.517Z,99.90
2018-10-11T18:46:16.149Z,99.90
2018-10-11T18:48:45.554Z,99.90
2018-10-11T18:51:15.037Z,99.90
2018-10-11T18:53:44.734Z,99.90
2018-10-11T18:56:14.147Z,99.90
2018-10-11T18:58:43.706Z,99.90
2018-10-11T19:01:14.103Z,99.90
2018-10-11T19:03:43.777Z,99.90
2018-10-11T19:06:14.407Z,99.90
2018-10-11T19:08:43.845Z,99.90
2018-10-11T19:11:13.600Z,99.90
2018-10-11T19:13:43.294Z,99.90
2018-10-11T19:16:13.090Z,99.90
2018-10-11T19:18:42.519Z,99.90
2018-10-11T19:21:13.979Z,99.90
2018-10-11T19:23:43.462Z,99.90
2018-10-11T19:26:14.145Z,99.90
2018-10-11T19:28:43.771Z,99.90
2018-10-11T19:31:14.051Z,99.90
2018-10-11T19:33:43.555Z,99.90
2018-10-11T19:36:13.235Z,99.90
2018-10-11T19:38:42.696Z,99.90
2018-10-11T19:41:12.854Z,99.90
2018-10-11T19:43:42.384Z,99.90
2018-10-11T19:46:12.607Z,99.90
2018-10-11T19:48:42.648Z,99.90
2018-10-11T19:51:12.111Z,99.90
2018-10-11T19:53:41.826Z,99.90
2018-10-11T19:56:11.477Z,99.90
2018-10-11T19:58:40.937Z,99.90
2018-10-11T20:01:10.747Z,99.90
2018-10-11T20:03:40.459Z,99.90
2018-10-11T20:06:10.166Z,99.90
2018-10-11T20:08:39.803Z,99.90
2018-10-11T20:11:09.203Z,99.90
2018-10-11T20:13:38.882Z,99.90
2018-10-11T20:16:08.269Z,99.90
2018-10-11T20:18:38.024Z,99.90
2018-10-11T20:21:07.944Z,99.90
2018-10-11T20:23:37.431Z,99.90
2018-10-11T20:26:07.184Z,99.90
2018-10-11T20:28:36.593Z,99.90
2018-10-11T20:31:06.067Z,99.90
2018-10-11T20:33:35.654Z,99.90
2018-10-11T20:36:05.463Z,99.90
2018-10-11T20:38:35.033Z,99.90
2018-10-11T20:41:04.601Z,99.90
2018-10-11T20:43:34.061Z,99.90
2018-10-11T20:46:03.996Z,99.90
2018-10-11T20:48:33.476Z,99.90
2018-10-11T20:51:03.108Z,99.90
2018-10-11T20:53:32.597Z,99.90
2018-10-11T20:56:02.069Z,99.90
2018-10-11T20:58:31.616Z,99.90
2018-10-11T21:01:01.104Z,99.90
2018-10-11T21:03:30.631Z,99.90
2018-10-11T21:06:00.000Z,99.90
2018-10-11T21:08:29.532Z,99.90
2018-10-11T21:10:59.018Z,99.90
2018-10-11T21:13:28.477Z,99.90
2018-10-11T21:15:58.158Z,99.90
2018-10-11T21:18:27.539Z,99.90
2018-10-11T21:20:56.637Z,99.90
2018-10-11T21:23:25.770Z,99.90
2018-10-11T21:25:54.936Z,99.90
2018-10-11T21:28:24.136Z,99.90
2018-10-11T21:30:53.239Z,99.90
2018-10-11T21:33:22.409Z,99.90
2018-10-11T21:35:51.513Z,99.90
2018-10-11T21:38:21.312Z,99.90
2018-10-11T21:40:50.485Z,99.90
2018-10-11T21:43:19.564Z,99.90
2018-10-11T21:45:48.683Z,99.90
2018-10-11T21:48:17.806Z,99.90
2018-10-11T21:50:46.970Z,99.90
2018-10-11T21:53:16.089Z,99.90
2018-10-11T21:55:45.268Z,99.90
2018-10-11T21:58:14.436Z,99.90
2018-10-11T22:01:47.349Z,99.90
2018-10-11T22:04:16.449Z,99.90
2018-10-11T22:06:45.660Z,99.90
2018-10-11T22:09:14.977Z,99.90
2018-10-11T22:11:44.054Z,99.90
2018-10-11T22:14:13.153Z,99.90
2018-10-11T22:16:42.280Z,99.90
2018-10-11T22:19:11.393Z,99.90
2018-10-11T22:21:40.541Z,99.90
2018-10-11T22:24:09.597Z,99.90
2018-10-11T22:26:38.720Z,99.90
2018-10-11T22:29:07.975Z,99.90
2018-10-11T22:31:37.192Z,99.90
2018-10-11T22:34:07.150Z,99.90
2018-10-11T22:36:36.316Z,99.90
2018-10-11T22:39:08.096Z,99.90
2018-10-11T22:41:38.152Z,99.90
2018-10-11T22:44:07.943Z,99.90
2018-10-11T22:46:37.377Z,99.90
2018-10-11T22:49:06.647Z,99.90
2018-10-11T22:51:35.783Z,99.90
2018-10-11T22:54:05.042Z,99.90
2018-10-11T22:56:34.167Z,99.90
2018-10-11T22:59:03.340Z,99.90
2018-10-11T23:01:32.420Z,99.90
2018-10-11T23:04:01.498Z,99.90
2018-10-11T23:06:30.612Z,99.90
2018-10-11T23:08:59.739Z,99.90
2018-10-11T23:11:28.912Z,99.90
2018-10-11T23:13:58.005Z,99.90
2018-10-11T23:16:27.142Z,99.90
2018-10-11T23:18:56.311Z,99.90
2018-10-11T23:21:25.459Z,99.90
2018-10-11T23:23:54.588Z,99.90
2018-10-11T23:26:23.680Z,99.90
2018-10-11T23:28:52.857Z,99.90
2018-10-11T23:31:22.042Z,99.90
2018-10-11T23:33:51.161Z,99.90
2018-10-11T23:36:20.256Z,99.90
2018-10-11T23:38:49.472Z,99.90
2018-10-11T23:41:18.818Z,99.90
2018-10-11T23:43:48.819Z,99.90
2018-10-11T23:46:17.982Z,99.90
2018-10-11T23:48:47.078Z,99.90
2018-10-11T23:51:16.282Z,99.90
2018-10-11T23:53:45.375Z,99.90
2018-10-11T23:56:14.507Z,99.90
2018-10-11T23:58:43.682Z,99.90
